Time;durP1;ratioP1;P1;durP2;ratioP2;P2;SDS_P1;SDS_P2;PMS_P1;PMS_P2;Temp;Humidity;BMP_temperature;BMP_pressure;BME280_temperature;BME280_humidity;BME280_pressure;Samples;Min_cycle;Max_cycle;Signal;HPM_P1;HPM_P2
2023/09/05 00:01:58;;;;;;;7.32;6.63;;;;;;;-140.66;100.00;55571.53;5119041;28;20023;-71
2023/09/05 00:04:44;;;;;;;7.68;6.88;;;;;;;-140.66;100.00;55571.53;5117837;28;20037;-71
2023/09/05 00:07:31;;;;;;;7.30;6.50;;;;;;;-140.66;100.00;55571.53;5119259;28;20400;-72
2023/09/05 00:10:17;;;;;;;8.07;7.03;;;;;;;-140.66;100.00;55571.53;5118725;28;20034;-72
2023/09/05 00:13:05;;;;;;;8.23;6.95;;;;;;;-140.66;100.00;55571.53;5123235;28;20027;-71
2023/09/05 00:15:51;;;;;;;9.85;7.65;;;;;;;-140.66;100.00;55571.53;5106058;28;20419;-71
2023/09/05 00:18:37;;;;;;;9.25;7.13;;;;;;;-140.66;100.00;55571.53;5119342;28;20028;-72
2023/09/05 00:21:23;;;;;;;8.68;7.53;;;;;;;-140.66;100.00;55571.53;5120548;28;20092;-72
2023/09/05 00:24:36;;;;;;;8.30;6.68;;;;;;;-140.66;100.00;55571.53;5119312;28;20099;-72
2023/09/05 00:27:22;;;;;;;9.10;6.80;;;;;;;-140.66;100.00;55571.53;5120085;28;20400;-71
2023/09/05 00:30:08;;;;;;;7.82;7.03;;;;;;;-140.66;100.00;55571.53;5119789;28;20024;-72
2023/09/05 00:32:53;;;;;;;8.20;6.47;;;;;;;-140.66;100.00;55571.53;5120331;28;20019;-72
2023/09/05 00:35:39;;;;;;;10.40;7.18;;;;;;;-140.66;100.00;55571.53;5120394;28;20055;-71
2023/09/05 00:38:25;;;;;;;8.77;6.80;;;;;;;-140.66;100.00;55571.53;5117937;28;20016;-72
2023/09/05 00:41:10;;;;;;;8.32;6.95;;;;;;;-140.66;100.00;55571.53;5114965;28;20093;-72
2023/09/05 00:43:56;;;;;;;10.40;7.07;;;;;;;-140.66;100.00;55571.53;5114964;28;20044;-72
2023/09/05 00:46:45;;;;;;;8.80;7.38;;;;;;;-140.66;100.00;55571.53;5112762;28;20028;-72
2023/09/05 00:49:38;;;;;;;8.43;6.93;;;;;;;-140.66;100.00;55571.53;5115292;28;20042;-73
2023/09/05 00:52:26;;;;;;;8.88;6.88;;;;;;;-140.66;100.00;55571.53;5114941;28;20048;-71
2023/09/05 00:55:11;;;;;;;9.48;7.15;;;;;;;-140.66;100.00;55571.53;5099935;28;20107;-73
2023/09/05 00:58:00;;;;;;;7.70;6.80;;;;;;;-140.66;100.00;55571.53;5113629;28;20452;-73
2023/09/05 01:00:46;;;;;;;15.45;7.05;;;;;;;-140.66;100.00;55571.53;5113752;28;20080;-71
2023/09/05 01:03:32;;;;;;;7.68;6.25;;;;;;;-140.66;100.00;55571.53;5113745;28;20027;-72
2023/09/05 01:06:31;;;;;;;7.00;6.28;;;;;;;-140.66;100.00;55571.53;5114229;28;20081;-72
2023/09/05 01:09:47;;;;;;;11.88;6.97;;;;;;;-140.66;100.00;55571.53;5101194;28;20055;-73
2023/09/05 01:12:32;;;;;;;9.57;6.72;;;;;;;-140.66;100.00;55571.53;5113823;28;20102;-72
2023/09/05 01:15:18;;;;;;;7.13;6.40;;;;;;;-140.66;100.00;55571.53;5100423;28;20015;-73
2023/09/05 01:18:04;;;;;;;8.88;7.05;;;;;;;-140.66;100.00;55571.53;5114681;28;20102;-73
2023/09/05 01:21:27;;;;;;;9.48;6.95;;;;;;;-140.66;100.00;55571.53;5112845;28;20045;-72
2023/09/05 01:24:20;;;;;;;9.90;6.97;;;;;;;-140.66;100.00;55571.53;5113606;28;20027;-72
2023/09/05 01:27:07;;;;;;;8.43;6.57;;;;;;;-140.66;100.00;55571.53;5097991;28;20019;-73
2023/09/05 01:29:54;;;;;;;7.72;6.65;;;;;;;-140.66;100.00;55571.53;5116318;28;20019;-73
2023/09/05 01:32:40;;;;;;;8.43;6.18;;;;;;;-140.66;100.00;55571.53;5112831;28;20026;-72
2023/09/05 01:35:26;;;;;;;8.05;7.07;;;;;;;-140.66;100.00;55571.53;5112862;28;20037;-72
2023/09/05 01:38:12;;;;;;;9.32;6.95;;;;;;;-140.66;100.00;55571.53;5114723;28;20039;-72
2023/09/05 01:40:57;;;;;;;8.85;6.32;;;;;;;-140.66;100.00;55571.53;5098845;28;20027;-73
2023/09/05 01:43:43;;;;;;;8.63;6.85;;;;;;;-140.66;100.00;55571.53;5112574;28;20124;-72
2023/09/05 01:46:29;;;;;;;10.00;6.93;;;;;;;-140.66;100.00;55571.53;5113808;28;20135;-71
2023/09/05 01:49:15;;;;;;;7.80;6.72;;;;;;;-140.66;100.00;55571.53;5114134;28;20108;-72
2023/09/05 01:52:00;;;;;;;9.40;6.47;;;;;;;-140.66;100.00;55571.53;5113275;28;20080;-72
2023/09/05 01:54:46;;;;;;;10.85;7.22;;;;;;;-140.66;100.00;55571.53;5112776;28;20354;-73
2023/09/05 01:57:32;;;;;;;7.10;6.32;;;;;;;-140.66;100.00;55571.53;5113972;28;20028;-72
2023/09/05 02:00:18;;;;;;;7.40;6.15;;;;;;;-140.66;100.00;55571.53;5113888;28;20024;-72
2023/09/05 02:03:04;;;;;;;9.40;6.35;;;;;;;-140.66;100.00;55571.53;5112925;28;20030;-72
2023/09/05 02:05:50;;;;;;;10.30;6.95;;;;;;;-140.66;100.00;55571.53;5113463;28;20027;-73
2023/09/05 02:08:36;;;;;;;6.80;6.10;;;;;;;-140.66;100.00;55571.53;5117055;28;20031;-73
2023/09/05 02:11:21;;;;;;;8.18;6.68;;;;;;;-140.66;100.00;55571.53;5116798;28;20365;-73
2023/09/05 02:14:07;;;;;;;7.53;6.10;;;;;;;-140.66;100.00;55571.53;5117008;28;20498;-73
2023/09/05 02:16:53;;;;;;;11.82;6.85;;;;;;;-140.66;100.00;55571.53;5118740;28;20372;-72
2023/09/05 02:19:39;;;;;;;8.63;6.80;;;;;;;-140.66;100.00;55571.53;5117286;28;20373;-73
2023/09/05 02:22:24;;;;;;;7.95;6.95;;;;;;;-140.66;100.00;55571.53;5117830;28;20034;-73
2023/09/05 02:25:12;;;;;;;10.55;7.10;;;;;;;-140.66;100.00;55571.53;5102465;28;20016;-71
2023/09/05 02:27:58;;;;;;;8.38;7.50;;;;;;;-140.66;100.00;55571.53;5116893;28;20027;-71
2023/09/05 02:30:45;;;;;;;10.82;7.72;;;;;;;-140.66;100.00;55571.53;5116325;28;20055;-71
2023/09/05 02:33:33;;;;;;;11.35;8.00;;;;;;;-140.66;100.00;55571.53;5101690;28;20047;-71
2023/09/05 02:36:20;;;;;;;9.18;7.43;;;;;;;-140.66;100.00;55571.53;5110914;28;20039;-72
2023/09/05 02:39:06;;;;;;;10.05;7.72;;;;;;;-140.66;100.00;55571.53;5116793;28;20341;-71
2023/09/05 02:41:52;;;;;;;9.98;7.40;;;;;;;-140.66;100.00;55571.53;5102159;28;20027;-72
2023/09/05 02:44:38;;;;;;;9.20;7.30;;;;;;;-140.66;100.00;55571.53;5116070;28;20047;-73
2023/09/05 02:47:23;;;;;;;10.07;7.88;;;;;;;-140.66;100.00;55571.53;5102694;28;20411;-73
2023/09/05 02:50:09;;;;;;;23.08;8.07;;;;;;;-140.66;100.00;55571.53;5115741;28;20059;-72
2023/09/05 02:52:55;;;;;;;17.60;8.25;;;;;;;-140.66;100.00;55571.53;5117359;28;20024;-72
2023/09/05 02:55:44;;;;;;;11.77;7.85;;;;;;;-140.66;100.00;55571.53;5102574;28;20028;-72
2023/09/05 02:58:31;;;;;;;11.18;7.65;;;;;;;-140.66;100.00;55571.53;5116180;28;20122;-72
2023/09/05 03:01:17;;;;;;;9.23;7.05;;;;;;;-140.66;100.00;55571.53;5116695;28;20024;-72
2023/09/05 03:04:03;;;;;;;10.48;8.02;;;;;;;-140.66;100.00;55571.53;5116939;28;20062;-73
2023/09/05 03:06:49;;;;;;;8.63;7.22;;;;;;;-140.66;100.00;55571.53;5101958;28;20023;-73
2023/09/05 03:09:35;;;;;;;11.27;7.40;;;;;;;-140.66;100.00;55571.53;5116729;28;20042;-72
2023/09/05 03:12:21;;;;;;;9.38;7.00;;;;;;;-140.66;100.00;55571.53;5118127;28;20020;-73
2023/09/05 03:15:07;;;;;;;9.32;7.32;;;;;;;-140.66;100.00;55571.53;5116807;28;20019;-73
2023/09/05 03:17:53;;;;;;;9.68;7.50;;;;;;;-140.66;100.00;55571.53;5116955;28;20034;-71
2023/09/05 03:20:39;;;;;;;11.10;7.90;;;;;;;-140.66;100.00;55571.53;5116770;28;20058;-72
2023/09/05 03:23:24;;;;;;;8.45;6.85;;;;;;;-140.66;100.00;55571.53;5117212;28;20398;-72
2023/09/05 03:26:10;;;;;;;14.20;7.68;;;;;;;-140.66;100.00;55571.53;5116693;28;20360;-72
2023/09/05 03:28:56;;;;;;;9.82;7.20;;;;;;;-140.66;100.00;55571.53;5117177;28;20165;-73
2023/09/05 03:31:43;;;;;;;10.40;7.00;;;;;;;-140.66;100.00;55571.53;5114778;28;20361;-74
2023/09/05 03:34:30;;;;;;;9.23;6.88;;;;;;;-140.66;100.00;55571.53;5117013;28;20479;-73
2023/09/05 03:37:16;;;;;;;11.65;7.30;;;;;;;-140.66;100.00;55571.53;5115960;28;20058;-72
2023/09/05 03:40:02;;;;;;;9.32;7.40;;;;;;;-140.66;100.00;55571.53;5116923;28;20031;-73
2023/09/05 03:42:48;;;;;;;11.10;7.20;;;;;;;-140.66;100.00;55571.53;5116357;28;20024;-72
2023/09/05 03:45:34;;;;;;;10.90;7.20;;;;;;;-140.66;100.00;55571.53;5115631;28;20075;-71
2023/09/05 03:48:20;;;;;;;12.93;7.60;;;;;;;-140.66;100.00;55571.53;5114923;28;20027;-73
2023/09/05 03:51:06;;;;;;;11.88;7.03;;;;;;;-140.66;100.00;55571.53;5101516;28;20023;-72
2023/09/05 03:53:51;;;;;;;10.65;7.57;;;;;;;-140.66;100.00;55571.53;5116061;28;20365;-72
2023/09/05 03:56:37;;;;;;;9.60;7.18;;;;;;;-140.66;100.00;55571.53;5099877;28;20023;-72
2023/09/05 03:59:23;;;;;;;10.45;7.18;;;;;;;-140.66;100.00;55571.53;5116052;28;20112;-72
2023/09/05 04:02:09;;;;;;;12.98;7.15;;;;;;;-140.66;100.00;55571.53;5115980;28;20067;-73
2023/09/05 04:04:55;;;;;;;10.20;7.25;;;;;;;-140.66;100.00;55571.53;5115474;28;20524;-72
2023/09/05 04:07:40;;;;;;;10.80;7.20;;;;;;;-140.66;100.00;55571.53;5114618;28;20027;-72
2023/09/05 04:10:26;;;;;;;10.75;7.13;;;;;;;-140.66;100.00;55571.53;5113983;28;20036;-72
2023/09/05 04:13:12;;;;;;;10.93;7.35;;;;;;;-140.66;100.00;55571.53;5114258;28;20096;-73
2023/09/05 04:16:04;;;;;;;11.48;7.03;;;;;;;-140.66;100.00;55571.53;5115893;28;20036;-73
2023/09/05 04:18:50;;;;;;;12.85;7.70;;;;;;;-140.66;100.00;55571.53;5099820;28;20102;-73
2023/09/05 04:21:35;;;;;;;11.90;7.47;;;;;;;-140.66;100.00;55571.53;5113551;28;20027;-73
2023/09/05 04:24:21;;;;;;;12.23;7.50;;;;;;;-140.66;100.00;55571.53;5115414;28;20016;-73
2023/09/05 04:27:07;;;;;;;16.33;8.57;;;;;;;-140.66;100.00;55571.53;5113930;28;20062;-73
2023/09/05 04:29:54;;;;;;;9.27;7.40;;;;;;;-140.66;100.00;55571.53;5114702;28;20441;-73
2023/09/05 04:32:43;;;;;;;9.98;7.30;;;;;;;-140.66;100.00;55571.53;5114231;28;20114;-73
2023/09/05 04:35:29;;;;;;;11.15;8.18;;;;;;;-140.66;100.00;55571.53;5099714;28;20072;-73
2023/09/05 04:38:15;;;;;;;10.98;7.20;;;;;;;-140.66;100.00;55571.53;5101247;28;20020;-73
2023/09/05 04:41:02;;;;;;;10.43;7.28;;;;;;;-140.66;100.00;55571.53;5115109;28;20028;-74
2023/09/05 04:43:47;;;;;;;11.63;7.20;;;;;;;-140.66;100.00;55571.53;5113077;28;20055;-71
2023/09/05 04:46:38;;;;;;;12.27;7.03;;;;;;;-140.66;100.00;55571.53;5115267;28;20023;-72
2023/09/05 04:49:23;;;;;;;16.70;7.20;;;;;;;-140.66;100.00;55571.53;5113991;28;20468;-73
2023/09/05 04:52:11;;;;;;;13.38;6.70;;;;;;;-140.66;100.00;55571.53;5099161;28;20046;-73
2023/09/05 04:54:59;;;;;;;11.13;6.70;;;;;;;-140.66;100.00;55571.53;5113871;28;20019;-73
2023/09/05 04:57:47;;;;;;;9.88;6.63;;;;;;;-140.66;100.00;55571.53;5099233;28;20100;-74
2023/09/05 05:00:33;;;;;;;11.07;6.38;;;;;;;-140.66;100.00;55571.53;5100209;28;20023;-72
2023/09/05 05:03:19;;;;;;;10.82;6.55;;;;;;;-140.66;100.00;55571.53;5098608;28;20084;-72
2023/09/05 05:06:07;;;;;;;12.05;6.65;;;;;;;-140.66;100.00;55571.53;5099414;28;20039;-72
2023/09/05 05:08:53;;;;;;;16.33;7.00;;;;;;;-140.66;100.00;55571.53;5100516;28;20036;-73
2023/09/05 05:11:39;;;;;;;10.10;6.68;;;;;;;-140.66;100.00;55571.53;5100813;28;20127;-71
2023/09/05 05:14:24;;;;;;;13.82;6.65;;;;;;;-140.66;100.00;55571.53;5114667;28;20030;-72
2023/09/05 05:17:13;;;;;;;13.15;6.68;;;;;;;-140.66;100.00;55571.53;5113319;28;20135;-73
2023/09/05 05:19:59;;;;;;;15.70;6.35;;;;;;;-140.66;100.00;55571.53;5113247;28;20054;-73
2023/09/05 05:22:45;;;;;;;7.70;6.22;;;;;;;-140.66;100.00;55571.53;5113096;28;20115;-73
2023/09/05 05:25:32;;;;;;;17.20;6.22;;;;;;;-140.66;100.00;55571.53;5113832;28;20540;-72
2023/09/05 05:28:18;;;;;;;12.52;6.20;;;;;;;-140.66;100.00;55571.53;5099014;28;20027;-72
2023/09/05 05:31:04;;;;;;;7.13;5.78;;;;;;;-140.66;100.00;55571.53;5098654;28;20035;-74
2023/09/05 05:33:49;;;;;;;9.30;5.97;;;;;;;-140.66;100.00;55571.53;5113771;28;20104;-73
2023/09/05 05:36:35;;;;;;;10.02;5.70;;;;;;;-140.66;100.00;55571.53;5114612;28;20346;-74
2023/09/05 05:39:22;;;;;;;10.55;6.43;;;;;;;-140.66;100.00;55571.53;5099271;28;20031;-72
2023/09/05 05:42:08;;;;;;;8.40;5.63;;;;;;;-140.66;100.00;55571.53;5117781;28;20456;-74
2023/09/05 05:44:54;;;;;;;13.30;5.85;;;;;;;-140.66;100.00;55571.53;5104336;28;20047;-72
2023/09/05 05:47:40;;;;;;;11.38;5.85;;;;;;;-140.66;100.00;55571.53;5120568;28;20027;-72
2023/09/05 05:50:26;;;;;;;9.60;5.90;;;;;;;-140.66;100.00;55571.53;5124027;28;20019;-72
2023/09/05 05:53:13;;;;;;;12.23;6.45;;;;;;;-140.66;100.00;55571.53;5121510;28;20085;-73
2023/09/05 05:55:59;;;;;;;10.23;5.60;;;;;;;-140.66;100.00;55571.53;5105702;28;20085;-74
2023/09/05 05:58:45;;;;;;;11.48;5.68;;;;;;;-140.66;100.00;55571.53;5120979;28;20027;-73
2023/09/05 06:01:32;;;;;;;9.30;5.53;;;;;;;-140.66;100.00;55571.53;5120070;28;20020;-73
2023/09/05 06:04:22;;;;;;;11.50;5.70;;;;;;;-140.66;100.00;55571.53;5120330;28;20096;-71
2023/09/05 06:07:08;;;;;;;11.35;5.85;;;;;;;-140.66;100.00;55571.53;5105432;28;20031;-73
2023/09/05 06:09:53;;;;;;;8.70;5.10;;;;;;;-140.66;100.00;55571.53;5105654;28;20032;-74
2023/09/05 06:12:39;;;;;;;15.82;6.03;;;;;;;-140.66;100.00;55571.53;5120564;28;20012;-72
2023/09/05 06:15:25;;;;;;;9.95;5.50;;;;;;;-140.66;100.00;55571.53;5119415;28;20088;-73
2023/09/05 06:18:12;;;;;;;11.05;5.70;;;;;;;-140.66;100.00;55571.53;5105628;28;20023;-73
2023/09/05 06:20:58;;;;;;;11.10;5.35;;;;;;;-140.66;100.00;55571.53;5120904;28;20058;-72
2023/09/05 06:23:44;;;;;;;12.95;5.22;;;;;;;-140.66;100.00;55571.53;5118990;28;20059;-73
2023/09/05 06:26:30;;;;;;;11.07;5.47;;;;;;;-140.66;100.00;55571.53;5119872;28;20453;-74
2023/09/05 06:29:15;;;;;;;16.08;5.72;;;;;;;-140.66;100.00;55571.53;5120939;28;20349;-73
2023/09/05 06:32:01;;;;;;;12.02;5.30;;;;;;;-140.66;100.00;55571.53;5119498;28;20051;-73
2023/09/05 06:34:47;;;;;;;12.63;5.55;;;;;;;-140.66;100.00;55571.53;5118723;28;20088;-74
2023/09/05 06:37:36;;;;;;;11.05;5.40;;;;;;;-140.66;100.00;55571.53;5119892;28;20130;-73
2023/09/05 06:40:23;;;;;;;17.23;5.57;;;;;;;-140.66;100.00;55571.53;5119747;28;20019;-71
2023/09/05 06:43:09;;;;;;;9.18;4.95;;;;;;;-140.66;100.00;55571.53;5117803;28;20119;-73
2023/09/05 06:46:06;;;;;;;10.82;5.15;;;;;;;-140.66;100.00;55571.53;5119806;28;20042;-71
2023/09/05 06:48:52;;;;;;;14.70;5.63;;;;;;;-140.66;100.00;55571.53;5120233;28;20114;-72
2023/09/05 06:51:38;;;;;;;13.07;5.40;;;;;;;-140.66;100.00;55571.53;5105105;28;20055;-72
2023/09/05 06:54:23;;;;;;;10.52;4.95;;;;;;;-140.66;100.00;55571.53;5115523;28;20155;-74
2023/09/05 06:57:09;;;;;;;6.72;4.70;;;;;;;-140.66;100.00;55571.53;5115703;28;20023;-73
2023/09/05 06:59:55;;;;;;;12.75;4.85;;;;;;;-140.66;100.00;55571.53;5117213;28;20445;-73
2023/09/05 07:02:41;;;;;;;14.43;5.20;;;;;;;-140.66;100.00;55571.53;5116522;28;20445;-71
2023/09/05 07:05:26;;;;;;;12.00;5.68;;;;;;;-140.66;100.00;55571.53;5116465;28;20048;-73
2023/09/05 07:08:12;;;;;;;11.57;5.30;;;;;;;-140.66;100.00;55571.53;5115420;28;20076;-72
2023/09/05 07:10:58;;;;;;;14.25;5.70;;;;;;;-140.66;100.00;55571.53;5102602;28;20034;-73
2023/09/05 07:13:44;;;;;;;16.52;5.70;;;;;;;-140.66;100.00;55571.53;5101885;28;20020;-73
2023/09/05 07:16:29;;;;;;;15.13;5.80;;;;;;;-140.66;100.00;55571.53;5115090;28;20054;-72
2023/09/05 07:19:18;;;;;;;12.35;5.15;;;;;;;-140.66;100.00;55571.53;5116017;28;20376;-72
2023/09/05 07:22:04;;;;;;;16.73;5.57;;;;;;;-140.66;100.00;55571.53;5116000;28;20433;-72
2023/09/05 07:24:50;;;;;;;9.75;4.97;;;;;;;-140.66;100.00;55571.53;5101450;28;20042;-72
2023/09/05 07:27:36;;;;;;;16.85;5.53;;;;;;;-140.66;100.00;55571.53;5115429;28;20041;-73
2023/09/05 07:30:22;;;;;;;9.63;4.85;;;;;;;-140.66;100.00;55571.53;5115423;28;20027;-73
2023/09/05 07:33:08;;;;;;;10.23;4.95;;;;;;;-140.66;100.00;55571.53;5116095;28;20024;-73
2023/09/05 07:35:54;;;;;;;12.27;4.90;;;;;;;-140.66;100.00;55571.53;5117392;28;20031;-73
2023/09/05 07:38:39;;;;;;;12.75;5.40;;;;;;;-140.66;100.00;55571.53;5116545;28;20027;-73
2023/09/05 07:41:25;;;;;;;7.47;4.60;;;;;;;-140.66;100.00;55571.53;5116096;28;20023;-73
2023/09/05 07:44:11;;;;;;;11.65;6.05;;;;;;;-140.66;100.00;55571.53;5115345;28;20054;-72
2023/09/05 07:46:56;;;;;;;13.75;5.22;;;;;;;-140.66;100.00;55571.53;5115928;28;20100;-73
2023/09/05 07:49:43;;;;;;;9.65;5.13;;;;;;;-140.66;100.00;55571.53;5101226;28;20034;-72
2023/09/05 07:52:29;;;;;;;12.77;5.05;;;;;;;-140.66;100.00;55571.53;5115801;28;20042;-73
2023/09/05 07:55:15;;;;;;;9.93;4.55;;;;;;;-140.66;100.00;55571.53;5115955;28;20020;-73
2023/09/05 07:58:01;;;;;;;8.95;5.28;;;;;;;-140.66;100.00;55571.53;5114690;28;20374;-73
2023/09/05 08:00:48;;;;;;;9.60;4.68;;;;;;;-140.66;100.00;55571.53;5115471;28;20505;-73
2023/09/05 08:03:33;;;;;;;9.70;4.85;;;;;;;-140.66;100.00;55571.53;5101472;28;20027;-73
2023/09/05 08:06:20;;;;;;;11.05;5.28;;;;;;;-140.66;100.00;55571.53;5099157;28;20028;-72
2023/09/05 08:09:06;;;;;;;7.13;4.75;;;;;;;-140.66;100.00;55571.53;5113976;28;20028;-73
2023/09/05 08:11:51;;;;;;;8.75;4.95;;;;;;;-140.66;100.00;55571.53;5101757;28;20019;-73
2023/09/05 08:14:37;;;;;;;9.80;5.18;;;;;;;-140.66;100.00;55571.53;5115028;28;20150;-73
2023/09/05 08:17:23;;;;;;;16.65;4.88;;;;;;;-140.66;100.00;55571.53;5114567;28;20020;-71
2023/09/05 08:20:12;;;;;;;9.15;4.95;;;;;;;-140.66;100.00;55571.53;5115117;28;20028;-74
2023/09/05 08:23:00;;;;;;;9.80;4.60;;;;;;;-140.66;100.00;55571.53;5099597;28;20038;-73
2023/09/05 08:25:51;;;;;;;8.00;4.80;;;;;;;-140.66;100.00;55571.53;5114845;28;20050;-73
2023/09/05 08:28:42;;;;;;;8.45;4.40;;;;;;;-140.66;100.00;55571.53;5114547;28;20168;-74
2023/09/05 08:31:28;;;;;;;10.95;4.78;;;;;;;-140.66;100.00;55571.53;5114040;28;20198;-73
2023/09/05 08:34:13;;;;;;;8.50;4.55;;;;;;;-140.66;100.00;55571.53;5114345;28;20024;-73
2023/09/05 08:36:59;;;;;;;8.23;4.63;;;;;;;-140.66;100.00;55571.53;5115254;28;20472;-74
2023/09/05 08:39:45;;;;;;;7.82;4.53;;;;;;;-140.66;100.00;55571.53;5115183;28;20088;-73
2023/09/05 08:42:32;;;;;;;22.05;4.95;;;;;;;-140.66;100.00;55571.53;5114687;28;20024;-72
2023/09/05 08:45:25;;;;;;;10.15;4.72;;;;;;;-140.66;100.00;55571.53;5115281;28;20055;-73
2023/09/05 08:48:11;;;;;;;8.60;4.50;;;;;;;-140.66;100.00;55571.53;5114770;28;20084;-73
2023/09/05 08:50:59;;;;;;;5.57;4.03;;;;;;;-140.66;100.00;55571.53;5102215;28;20065;-73
2023/09/05 08:53:56;;;;;;;18.33;5.30;;;;;;;-140.66;100.00;55571.53;5114084;28;20027;-73
2023/09/05 08:56:42;;;;;;;9.25;4.60;;;;;;;-140.66;100.00;55571.53;5100498;28;20041;-72
2023/09/05 08:59:29;;;;;;;7.53;4.50;;;;;;;-140.66;100.00;55571.53;5115207;28;20027;-72
2023/09/05 09:02:16;;;;;;;10.63;4.20;;;;;;;-140.66;100.00;55571.53;5113100;28;20024;-74
2023/09/05 09:05:02;;;;;;;12.32;4.32;;;;;;;-140.66;100.00;55571.53;5112889;28;20441;-73
2023/09/05 09:07:48;;;;;;;7.90;4.00;;;;;;;-140.66;100.00;55571.53;5113835;28;20050;-72
2023/09/05 09:10:34;;;;;;;11.00;3.90;;;;;;;-140.66;100.00;55571.53;5116253;28;20028;-72
2023/09/05 09:13:20;;;;;;;8.07;3.90;;;;;;;-140.66;100.00;55571.53;5113237;28;20016;-73
2023/09/05 09:16:06;;;;;;;16.02;4.50;;;;;;;-140.66;100.00;55571.53;5113273;28;20039;-72
2023/09/05 09:19:03;;;;;;;7.82;4.30;;;;;;;-140.66;100.00;55571.53;5098867;28;20107;-72
2023/09/05 09:21:49;;;;;;;9.55;4.00;;;;;;;-140.66;100.00;55571.53;5098055;28;20027;-73
2023/09/05 09:24:36;;;;;;;6.82;3.60;;;;;;;-140.66;100.00;55571.53;5115122;28;20027;-73
2023/09/05 09:27:23;;;;;;;8.30;3.60;;;;;;;-140.66;100.00;55571.53;5114717;28;20372;-74
2023/09/05 09:30:09;;;;;;;9.73;3.75;;;;;;;-140.66;100.00;55571.53;5099285;28;20127;-73
2023/09/05 09:32:55;;;;;;;6.28;3.67;;;;;;;-140.66;100.00;55571.53;5112683;28;20015;-73
2023/09/05 09:35:41;;;;;;;6.78;3.53;;;;;;;-140.66;100.00;55571.53;5114750;28;20036;-74
2023/09/05 09:38:28;;;;;;;6.70;3.53;;;;;;;-140.66;100.00;55571.53;5113685;28;20024;-73
2023/09/05 09:41:16;;;;;;;9.90;3.65;;;;;;;-140.66;100.00;55571.53;5114138;28;20024;-73
2023/09/05 09:44:01;;;;;;;4.47;3.40;;;;;;;-140.66;100.00;55571.53;5113366;28;20044;-73
2023/09/05 09:46:47;;;;;;;8.98;3.53;;;;;;;-140.66;100.00;55571.53;5114315;28;20034;-73
2023/09/05 09:49:37;;;;;;;7.20;3.00;;;;;;;-140.66;100.00;55571.53;5112591;28;20020;-74
2023/09/05 09:52:24;;;;;;;6.55;3.13;;;;;;;-140.66;100.00;55571.53;5112978;28;20030;-73
2023/09/05 09:55:14;;;;;;;8.27;3.47;;;;;;;-140.66;100.00;55571.53;5113022;28;20100;-73
2023/09/05 09:58:10;;;;;;;5.32;3.10;;;;;;;-140.66;100.00;55571.53;5114306;28;20414;-73
2023/09/05 10:00:58;;;;;;;9.70;4.07;;;;;;;-140.66;100.00;55571.53;5113967;28;20032;-74
2023/09/05 10:03:46;;;;;;;6.88;3.35;;;;;;;-140.66;100.00;55571.53;5099163;28;20032;-74
2023/09/05 10:06:33;;;;;;;5.78;3.47;;;;;;;-140.66;100.00;55571.53;5114549;28;20106;-72
2023/09/05 10:09:20;;;;;;;5.18;3.03;;;;;;;-140.66;100.00;55571.53;5112023;28;20034;-73
2023/09/05 10:12:07;;;;;;;13.32;3.30;;;;;;;-140.66;100.00;55571.53;5112401;28;20544;-72
2023/09/05 10:14:55;;;;;;;5.53;3.20;;;;;;;-140.66;100.00;55571.53;5113299;28;20031;-72
2023/09/05 10:17:45;;;;;;;4.95;2.85;;;;;;;-140.66;100.00;55571.53;5098053;28;20027;-74
2023/09/05 10:20:33;;;;;;;8.35;3.50;;;;;;;-140.66;100.00;55571.53;5113840;28;20023;-73
2023/09/05 10:23:20;;;;;;;8.45;3.65;;;;;;;-140.66;100.00;55571.53;5097821;28;20032;-73
2023/09/05 10:26:07;;;;;;;9.15;3.78;;;;;;;-140.66;100.00;55571.53;5114008;28;20036;-74
2023/09/05 10:28:56;;;;;;;5.63;3.20;;;;;;;-140.66;100.00;55571.53;5115649;28;20465;-72
2023/09/05 10:31:43;;;;;;;17.48;3.92;;;;;;;-140.66;100.00;55571.53;5102689;28;20027;-71
2023/09/05 10:34:47;;;;;;;10.95;3.50;;;;;;;-140.66;100.00;55571.53;5115698;28;20381;-73
2023/09/05 10:37:33;;;;;;;14.13;4.88;;;;;;;-140.66;100.00;55571.53;5118571;28;20105;-73
2023/09/05 10:40:32;;;;;;;8.15;3.17;;;;;;;-140.66;100.00;55571.53;5101669;28;20027;-72
2023/09/05 10:43:22;;;;;;;14.65;3.95;;;;;;;-140.66;100.00;55571.53;5116405;28;20031;-72
2023/09/05 10:46:12;;;;;;;3.90;3.20;;;;;;;-140.66;100.00;55571.53;5101223;28;20096;-72
2023/09/05 10:49:14;;;;;;;8.45;3.70;;;;;;;-140.66;100.00;55571.53;5116431;28;20372;-72
2023/09/05 10:52:19;;;;;;;29.00;4.22;;;;;;;-140.66;100.00;55571.53;5116939;28;20019;-72
2023/09/05 10:55:29;;;;;;;18.27;3.65;;;;;;;-140.66;100.00;55571.53;5116349;28;20027;-72
2023/09/05 10:58:56;;;;;;;19.05;4.10;;;;;;;-140.66;100.00;55571.53;5116426;28;20066;-73
2023/09/05 11:01:48;;;;;;;5.63;2.97;;;;;;;-140.66;100.00;55571.53;5117349;28;20441;-73
2023/09/05 11:04:34;;;;;;;11.45;3.67;;;;;;;-140.66;100.00;55571.53;5115156;28;20028;-72
2023/09/05 11:07:23;;;;;;;9.35;3.92;;;;;;;-140.66;100.00;55571.53;5117538;28;20088;-72
2023/09/05 11:10:13;;;;;;;8.35;3.88;;;;;;;-140.66;100.00;55571.53;5101369;28;20027;-73
2023/09/05 11:13:08;;;;;;;17.65;3.88;;;;;;;-140.66;100.00;55571.53;5116096;28;20031;-72
2023/09/05 11:16:01;;;;;;;13.15;3.38;;;;;;;-140.66;100.00;55571.53;5115073;28;20120;-72
2023/09/05 11:18:54;;;;;;;9.00;3.60;;;;;;;-140.66;100.00;55571.53;5116907;28;20034;-72
2023/09/05 11:21:40;;;;;;;5.90;3.20;;;;;;;-140.66;100.00;55571.53;5114893;28;20444;-72
2023/09/05 11:24:30;;;;;;;10.05;3.30;;;;;;;-140.66;100.00;55571.53;5118095;28;20061;-72
2023/09/05 11:27:19;;;;;;;6.65;3.22;;;;;;;-140.66;100.00;55571.53;5115837;28;20055;-71
2023/09/05 11:30:06;;;;;;;16.90;3.55;;;;;;;-140.66;100.00;55571.53;5115571;28;20105;-72
2023/09/05 11:32:53;;;;;;;11.45;3.85;;;;;;;-140.66;100.00;55571.53;5115317;28;20143;-72
2023/09/05 11:35:41;;;;;;;16.25;3.65;;;;;;;-140.66;100.00;55571.53;5115613;28;20445;-73
2023/09/05 11:38:28;;;;;;;8.55;3.70;;;;;;;-140.66;100.00;55571.53;5100916;28;20059;-72
2023/09/05 11:41:16;;;;;;;8.13;3.67;;;;;;;-140.66;100.00;55571.53;5114358;28;20042;-72
2023/09/05 11:44:02;;;;;;;9.98;3.35;;;;;;;-140.66;100.00;55571.53;5115681;28;20129;-72
2023/09/05 11:46:47;;;;;;;10.85;3.50;;;;;;;-140.66;100.00;55571.53;5114937;28;20449;-72
2023/09/05 11:49:34;;;;;;;11.93;3.95;;;;;;;-140.66;100.00;55571.53;5116381;28;20334;-72
2023/09/05 11:52:23;;;;;;;13.43;3.95;;;;;;;-140.66;100.00;55571.53;5115568;28;20020;-73
2023/09/05 11:55:10;;;;;;;15.10;3.60;;;;;;;-140.66;100.00;55571.53;5114457;28;20024;-72
2023/09/05 11:57:57;;;;;;;11.73;3.92;;;;;;;-140.66;100.00;55571.53;5114092;28;20126;-72
2023/09/05 12:00:45;;;;;;;20.25;4.10;;;;;;;-140.66;100.00;55571.53;5116089;28;20024;-71
2023/09/05 12:03:38;;;;;;;15.32;3.70;;;;;;;-140.66;100.00;55571.53;5113812;28;20111;-72
2023/09/05 12:06:24;;;;;;;9.88;3.30;;;;;;;-140.66;100.00;55571.53;5100099;28;20080;-72
2023/09/05 12:09:12;;;;;;;15.35;4.50;;;;;;;-140.66;100.00;55571.53;5116490;28;20027;-72
2023/09/05 12:12:12;;;;;;;9.35;4.05;;;;;;;-140.66;100.00;55571.53;5114453;28;20031;-73
2023/09/05 12:14:59;;;;;;;10.60;3.28;;;;;;;-140.66;100.00;55571.53;5115478;28;20023;-73
2023/09/05 12:17:48;;;;;;;12.30;3.55;;;;;;;-140.66;100.00;55571.53;5100287;28;20020;-72
2023/09/05 12:20:35;;;;;;;16.45;3.50;;;;;;;-140.66;100.00;55571.53;5114504;28;20023;-74
2023/09/05 12:23:24;;;;;;;7.53;3.60;;;;;;;-140.66;100.00;55571.53;5113622;28;20039;-73
2023/09/05 12:26:10;;;;;;;22.98;4.88;;;;;;;-140.66;100.00;55571.53;5115519;28;20074;-72
2023/09/05 12:28:58;;;;;;;13.10;4.10;;;;;;;-140.66;100.00;55571.53;5114917;28;20114;-72
2023/09/05 12:31:46;;;;;;;69.90;6.45;;;;;;;-140.66;100.00;55571.53;5099300;28;20438;-73
2023/09/05 12:34:32;;;;;;;16.17;3.97;;;;;;;-140.66;100.00;55571.53;5113856;28;20067;-72
2023/09/05 12:37:18;;;;;;;9.40;3.67;;;;;;;-140.66;100.00;55571.53;5114296;28;20027;-72